Time;durP1;ratioP1;P1;durP2;ratioP2;P2;SDS_P1;SDS_P2;PMS_P1;PMS_P2;Temp;Humidity;BMP_temperature;BMP_pressure;BME280_temperature;BME280_humidity;BME280_pressure;Samples;Min_cycle;Max_cycle;Signal;HPM_P1;HPM_P2
2022/07/03 00:01:34;;;;;;;5.27;4.93;;;19.10;14.20;;;;;;5051848;28;20182;-69
2022/07/03 00:04:00;;;;;;;5.10;4.80;;;19.00;14.20;;;;;;5051140;28;20932;-69
2022/07/03 00:06:26;;;;;;;5.57;5.27;;;19.00;14.00;;;;;;5051926;28;20420;-69
2022/07/03 00:08:53;;;;;;;5.57;5.27;;;19.00;14.10;;;;;;5054446;28;20187;-70
2022/07/03 00:11:19;;;;;;;6.30;5.47;;;19.00;14.40;;;;;;5054628;28;20896;-69
2022/07/03 00:13:45;;;;;;;5.13;4.90;;;19.00;14.60;;;;;;5054703;28;20834;-69
2022/07/03 00:16:10;;;;;;;6.40;5.90;;;18.90;14.30;;;;;;5054703;28;20492;-69
2022/07/03 00:18:36;;;;;;;5.23;4.93;;;18.90;14.30;;;;;;5054422;28;20175;-70
2022/07/03 00:21:07;;;;;;;4.87;4.67;;;18.90;14.20;;;;;;5054766;28;20175;-70
2022/07/03 00:23:45;;;;;;;4.57;4.37;;;18.90;14.40;;;;;;5054570;28;20240;-69
2022/07/03 00:26:15;;;;;;;4.67;4.37;;;18.70;14.80;;;;;;5086796;28;20425;-70
2022/07/03 00:28:43;;;;;;;5.23;4.93;;;18.50;15.50;;;;;;5054011;28;20428;-69
2022/07/03 00:31:10;;;;;;;4.10;3.90;;;18.50;15.50;;;;;;5054399;28;20451;-69
2022/07/03 00:33:36;;;;;;;4.47;4.27;;;18.60;15.60;;;;;;5054301;28;20445;-69
2022/07/03 00:36:02;;;;;;;4.70;4.40;;;18.60;15.30;;;;;;5054281;28;20492;-69
2022/07/03 00:38:28;;;;;;;5.07;4.67;;;18.60;15.60;;;;;;5054095;28;20595;-70
2022/07/03 00:40:53;;;;;;;5.10;4.80;;;18.60;15.60;;;;;;5054757;28;20474;-70
2022/07/03 00:43:20;;;;;;;4.73;4.43;;;18.60;16.20;;;;;;5086711;28;20175;-69
2022/07/03 00:45:49;;;;;;;4.40;4.20;;;18.50;15.50;;;;;;5054349;28;20349;-69
2022/07/03 00:48:16;;;;;;;4.67;4.27;;;18.50;15.50;;;;;;5054206;28;20421;-69
2022/07/03 00:50:46;;;;;;;4.27;3.97;;;18.50;15.50;;;;;;5054722;28;20786;-70
2022/07/03 00:53:13;;;;;;;4.77;4.47;;;18.50;15.50;;;;;;5054417;28;20413;-69
2022/07/03 00:55:42;;;;;;;4.57;4.27;;;18.50;15.50;;;;;;5053844;28;22466;-70
2022/07/03 00:58:09;;;;;;;4.50;4.27;;;18.50;15.50;;;;;;5053687;28;20449;-69
2022/07/03 01:00:40;;;;;;;4.47;4.17;;;18.50;15.50;;;;;;5053928;28;20779;-70
2022/07/03 01:03:11;;;;;;;4.70;4.30;;;18.50;15.50;;;;;;5053917;28;20420;-70
2022/07/03 01:05:42;;;;;;;4.43;4.13;;;18.40;16.10;;;;;;5053686;28;20465;-69
2022/07/03 01:08:32;;;;;;;3.70;3.50;;;18.40;16.30;;;;;;5053743;28;20888;-69
2022/07/03 01:11:07;;;;;;;4.00;3.70;;;18.40;16.30;;;;;;5053741;28;20428;-69
2022/07/03 01:14:11;;;;;;;3.80;3.60;;;18.30;17.70;;;;;;5054134;28;20764;-70
2022/07/03 01:17:02;;;;;;;3.67;3.37;;;18.20;17.40;;;;;;5053437;28;20522;-69
2022/07/03 01:19:41;;;;;;;3.50;3.30;;;18.10;18.00;;;;;;5052112;28;20412;-69
2022/07/03 01:22:19;;;;;;;3.80;3.37;;;18.00;18.10;;;;;;5053401;28;20840;-70
2022/07/03 01:25:09;;;;;;;2.80;2.60;;;17.90;18.80;;;;;;5085722;28;20440;-70
2022/07/03 01:27:59;;;;;;;2.67;2.47;;;17.90;18.90;;;;;;5053392;28;20504;-70
2022/07/03 01:30:31;;;;;;;3.60;3.30;;;17.70;19.00;;;;;;5053273;28;20409;-69
2022/07/03 01:33:09;;;;;;;3.60;3.30;;;17.70;19.30;;;;;;5053277;28;20502;-69
2022/07/03 01:35:40;;;;;;;2.73;2.43;;;17.70;19.30;;;;;;5053192;28;20502;-69
2022/07/03 01:38:13;;;;;;;2.90;2.70;;;17.60;19.80;;;;;;5085375;28;20425;-69
2022/07/03 01:40:41;;;;;;;2.60;2.40;;;17.50;20.00;;;;;;5053254;28;20555;-69
2022/07/03 01:43:12;;;;;;;3.47;3.17;;;17.40;20.20;;;;;;5052831;28;20417;-69
2022/07/03 01:45:47;;;;;;;6.43;2.73;;;17.40;20.40;;;;;;5052880;28;20509;-69
2022/07/03 01:48:13;;;;;;;2.80;2.60;;;17.30;20.60;;;;;;5052688;28;20408;-69
2022/07/03 01:50:41;;;;;;;2.10;1.90;;;17.30;20.70;;;;;;5052802;28;20475;-69
2022/07/03 01:53:09;;;;;;;3.17;2.73;;;17.30;20.90;;;;;;5051498;28;20425;-69
2022/07/03 01:55:39;;;;;;;3.10;2.60;;;17.30;20.90;;;;;;5051236;28;20520;-69
2022/07/03 01:58:05;;;;;;;2.47;2.27;;;17.30;20.80;;;;;;5052404;28;20441;-69
2022/07/03 02:00:46;;;;;;;2.43;2.23;;;17.20;20.80;;;;;;5054891;28;20417;-69
2022/07/03 02:03:29;;;;;;;1.83;1.73;;;17.20;20.80;;;;;;5089138;28;20426;-69
2022/07/03 02:06:06;;;;;;;3.27;2.77;;;17.10;21.00;;;;;;5058438;28;20459;-70
2022/07/03 02:08:50;;;;;;;2.80;2.60;;;17.10;21.30;;;;;;5052418;28;20421;-68
2022/07/03 02:11:20;;;;;;;3.50;2.73;;;17.00;21.20;;;;;;5052722;28;20412;-67
2022/07/03 02:14:15;;;;;;;2.57;2.37;;;17.00;21.50;;;;;;5052989;28;20417;-67
2022/07/03 02:17:09;;;;;;;2.67;2.27;;;17.00;21.80;;;;;;5052376;28;20479;-68
2022/07/03 02:19:52;;;;;;;2.67;1.63;;;16.90;22.10;;;;;;5051869;28;20425;-69
2022/07/03 02:22:39;;;;;;;6.00;2.10;;;16.80;22.40;;;;;;5052369;28;20807;-69
2022/07/03 02:25:18;;;;;;;2.50;1.90;;;16.80;23.00;;;;;;5052325;28;20435;-68
2022/07/03 02:27:55;;;;;;;2.50;1.73;;;16.70;22.90;;;;;;5084539;28;20527;-68
2022/07/03 02:30:23;;;;;;;2.90;2.20;;;16.70;22.90;;;;;;5051987;28;20467;-68
2022/07/03 02:32:51;;;;;;;2.13;1.67;;;16.70;22.90;;;;;;5052083;28;20413;-68
2022/07/03 02:35:31;;;;;;;2.97;2.37;;;16.60;22.90;;;;;;5052131;28;20444;-67
2022/07/03 02:38:01;;;;;;;2.70;2.50;;;16.60;22.90;;;;;;5052074;28;20437;-67
2022/07/03 02:40:31;;;;;;;4.03;2.60;;;16.60;22.90;;;;;;5052052;28;20830;-68
2022/07/03 02:43:21;;;;;;;2.23;2.03;;;16.50;22.80;;;;;;5050882;28;20449;-68
2022/07/03 02:49:19;;;;;;;3.40;2.53;;;16.50;22.80;;;;;;5052187;28;20412;-68
2022/07/03 02:52:12;;;;;;;2.67;2.47;;;16.60;22.90;;;;;;5052194;28;20771;-68
2022/07/03 02:54:47;;;;;;;2.40;2.10;;;16.60;22.90;;;;;;5040427;28;20467;-68
2022/07/03 02:57:20;;;;;;;3.33;2.30;;;16.50;22.80;;;;;;5052475;28;20460;-68
2022/07/03 02:59:48;;;;;;;2.27;2.00;;;16.60;22.90;;;;;;5051692;28;20428;-68
2022/07/03 03:02:17;;;;;;;4.80;2.60;;;16.50;22.80;;;;;;5052437;28;20411;-68
2022/07/03 03:04:45;;;;;;;2.53;2.33;;;16.50;22.80;;;;;;5084350;28;21025;-68
2022/07/03 03:07:15;;;;;;;2.63;2.27;;;16.60;22.90;;;;;;5051940;28;20495;-68
2022/07/03 03:09:43;;;;;;;2.00;1.80;;;16.60;22.90;;;;;;5051540;28;20503;-68
2022/07/03 03:12:09;;;;;;;2.30;1.90;;;16.60;22.90;;;;;;5051897;28;20816;-68
2022/07/03 03:14:47;;;;;;;3.40;2.57;;;16.60;22.90;;;;;;5051714;28;20523;-68
2022/07/03 03:17:18;;;;;;;2.83;2.63;;;16.60;22.90;;;;;;5051855;28;20464;-69
2022/07/03 03:19:51;;;;;;;2.30;2.10;;;16.60;22.90;;;;;;5051557;28;20475;-68
2022/07/03 03:22:38;;;;;;;2.60;2.40;;;16.60;22.90;;;;;;5051669;28;20413;-68
2022/07/03 03:25:04;;;;;;;3.17;2.27;;;16.60;22.90;;;;;;5051489;28;20447;-69
2022/07/03 03:27:29;;;;;;;3.20;2.50;;;16.60;22.90;;;;;;5051557;28;20825;-69
2022/07/03 03:29:55;;;;;;;3.43;2.53;;;16.60;22.80;;;;;;5051123;28;20424;-68
2022/07/03 03:32:24;;;;;;;2.47;1.93;;;16.50;22.80;;;;;;5051500;28;20178;-68
2022/07/03 03:34:50;;;;;;;17.23;2.70;;;16.50;22.80;;;;;;5051501;28;20437;-68
2022/07/03 03:37:15;;;;;;;3.13;2.57;;;16.50;22.80;;;;;;5051462;28;20653;-69
2022/07/03 03:39:42;;;;;;;3.30;2.20;;;16.40;23.10;;;;;;5051075;28;20197;-68
2022/07/03 03:42:08;;;;;;;9.93;2.60;;;16.40;23.50;;;;;;5053306;28;20178;-68
2022/07/03 03:44:34;;;;;;;3.50;2.60;;;16.40;24.00;;;;;;5055130;28;20934;-68
2022/07/03 03:47:00;;;;;;;3.10;1.63;;;16.40;24.20;;;;;;5055274;28;20836;-68
2022/07/03 03:49:26;;;;;;;2.80;2.30;;;16.30;24.20;;;;;;5054975;28;20193;-68
2022/07/03 03:51:52;;;;;;;3.50;2.10;;;16.30;24.40;;;;;;5055105;28;20432;-68
2022/07/03 03:54:18;;;;;;;2.33;2.13;;;16.30;24.20;;;;;;5055033;28;20939;-68
2022/07/03 03:56:43;;;;;;;1.87;1.67;;;16.40;24.20;;;;;;5055308;28;20587;-68
2022/07/03 03:59:09;;;;;;;2.20;1.60;;;16.40;24.20;;;;;;5054970;28;20181;-69
2022/07/03 04:01:34;;;;;;;1.87;1.67;;;16.40;24.10;;;;;;5055060;28;20645;-69
2022/07/03 04:04:00;;;;;;;3.60;2.20;;;16.40;23.90;;;;;;5112358;22;21432;-70
2022/07/03 04:06:25;;;;;;;3.20;2.60;;;16.30;24.70;;;;;;5073256;28;20202;-70
2022/07/03 04:08:51;;;;;;;3.43;2.33;;;16.30;24.50;;;;;;5074341;28;20685;-69
2022/07/03 04:11:17;;;;;;;2.87;2.27;;;16.20;24.60;;;;;;5075043;28;20177;-70
2022/07/03 04:13:43;;;;;;;2.53;1.77;;;16.30;24.80;;;;;;5075008;28;20417;-70
2022/07/03 04:16:08;;;;;;;2.90;1.97;;;16.30;24.80;;;;;;5074582;28;20228;-70
2022/07/03 04:18:34;;;;;;;4.33;2.13;;;16.30;24.70;;;;;;5074342;28;20174;-69
2022/07/03 04:21:00;;;;;;;2.70;2.50;;;16.40;25.00;;;;;;5074512;28;20222;-69
2022/07/03 04:23:25;;;;;;;2.23;2.03;;;16.40;24.80;;;;;;5074609;28;20770;-70
2022/07/03 04:25:51;;;;;;;3.43;2.30;;;16.40;24.70;;;;;;5073244;28;20471;-72
2022/07/03 04:28:17;;;;;;;3.90;2.00;;;16.50;24.40;;;;;;5074185;28;20231;-73
2022/07/03 04:30:43;;;;;;;2.10;1.83;;;;;;;;;;5074417;28;20170;-71
2022/07/03 04:33:08;;;;;;;2.80;2.13;;;16.60;23.80;;;;;;5074311;28;20215;-72
2022/07/03 04:35:34;;;;;;;1.90;1.70;;;16.50;23.90;;;;;;5072854;28;20447;-72
2022/07/03 04:37:59;;;;;;;2.20;1.90;;;16.50;24.40;;;;;;5073781;28;20302;-72
2022/07/03 04:40:25;;;;;;;2.73;2.03;;;16.50;23.70;;;;;;5074419;28;20264;-71
2022/07/03 04:42:50;;;;;;;3.30;2.33;;;16.60;23.90;;;;;;5074078;28;20174;-71
2022/07/03 04:45:16;;;;;;;2.10;1.77;;;16.60;24.20;;;;;;5074024;28;20664;-72
2022/07/03 04:47:41;;;;;;;2.20;1.93;;;16.50;24.70;;;;;;5073942;28;20181;-72
2022/07/03 04:50:07;;;;;;;3.30;2.50;;;16.50;24.60;;;;;;5073571;28;20206;-70
2022/07/03 04:52:33;;;;;;;3.20;2.33;;;16.60;24.90;;;;;;5073876;28;20186;-71
2022/07/03 04:54:58;;;;;;;3.13;2.00;;;16.70;24.10;;;;;;5073841;28;20428;-71
2022/07/03 04:57:24;;;;;;;2.37;2.07;;;17.20;24.50;;;;;;5073797;28;20252;-70
2022/07/03 04:59:49;;;;;;;3.80;3.50;;;18.50;21.80;;;;;;5066117;28;20178;-70
2022/07/03 05:02:15;;;;;;;5.60;5.30;;;;;;;;;;5065193;28;20771;-71
2022/07/03 05:04:42;;;;;;;6.70;6.30;;;;;;;;;;5062824;28;20313;-71
2022/07/03 05:07:08;;;;;;;9.40;8.90;;;20.00;18.30;;;;;;5063989;28;20441;-70
2022/07/03 05:09:33;;;;;;;9.90;9.50;;;24.50;10.40;;;;;;5070278;28;20420;-72
2022/07/03 05:11:59;;;;;;;11.73;11.23;;;25.70;8.80;;;;;;5073501;28;20227;-72
2022/07/03 05:14:24;;;;;;;12.70;12.20;;;26.60;6.20;;;;;;5073366;28;20197;-71
2022/07/03 05:16:50;;;;;;;13.20;12.70;;;27.40;5.10;;;;;;5073359;28;20297;-71
2022/07/03 05:19:16;;;;;;;12.93;12.43;;;28.20;3.30;;;;;;5073089;28;20543;-71
2022/07/03 05:21:41;;;;;;;12.70;12.30;;;28.70;3.10;;;;;;5073212;28;20177;-71
2022/07/03 05:24:07;;;;;;;13.73;13.17;;;29.40;2.40;;;;;;5073132;28;20246;-71
2022/07/03 05:26:32;;;;;;;13.60;13.10;;;30.30;1.30;;;;;;5073258;28;20181;-71
2022/07/03 05:28:58;;;;;;;13.37;12.87;;;31.20;1.00;;;;;;5072886;28;20178;-71
2022/07/03 05:31:23;;;;;;;13.90;13.40;;;32.00;1.00;;;;;;5073101;28;20177;-68
2022/07/03 05:33:49;;;;;;;15.07;14.30;;;32.60;1.00;;;;;;5073063;28;20227;-71
2022/07/03 05:36:15;;;;;;;14.43;13.90;;;33.40;1.00;;;;;;5072803;28;20225;-72
2022/07/03 05:41:24;;;;;;;14.87;14.27;;;34.40;1.00;;;;;;5073045;28;20189;-72
2022/07/03 05:43:50;;;;;;;15.53;14.63;;;34.80;1.00;;;;;;5072889;28;20416;-72
2022/07/03 05:46:16;;;;;;;14.10;13.60;;;34.80;1.00;;;;;;5072979;28;20564;-72
2022/07/03 05:48:41;;;;;;;14.00;13.50;;;34.70;1.00;;;;;;5073210;28;20178;-73
2022/07/03 05:51:07;;;;;;;14.27;13.77;;;34.80;1.00;;;;;;5072434;28;20185;-73
2022/07/03 05:53:32;;;;;;;14.30;13.80;;;34.90;1.00;;;;;;5071915;28;20185;-71
2022/07/03 05:55:58;;;;;;;14.50;13.90;;;34.90;1.00;;;;;;5072672;28;20224;-72
2022/07/03 05:58:24;;;;;;;14.43;13.93;;;34.90;1.00;;;;;;5072470;28;20187;-72
2022/07/03 06:00:49;;;;;;;14.03;13.53;;;35.50;1.00;;;;;;5072535;28;20515;-72
2022/07/03 06:03:15;;;;;;;14.93;14.33;;;35.60;1.00;;;;;;5072828;28;20640;-72
2022/07/03 06:05:40;;;;;;;14.50;13.90;;;35.60;1.00;;;;;;5072561;28;20213;-72
2022/07/03 06:08:06;;;;;;;14.20;13.70;;;35.80;1.00;;;;;;5072959;28;20261;-72
2022/07/03 06:10:32;;;;;;;14.47;13.67;;;35.80;1.00;;;;;;5073621;28;20170;-72
2022/07/03 06:12:57;;;;;;;14.13;13.63;;;36.10;1.00;;;;;;5073294;28;20666;-71
2022/07/03 06:15:23;;;;;;;15.80;15.10;;;36.50;1.00;;;;;;5074470;28;20202;-69
2022/07/03 06:17:48;;;;;;;14.37;13.77;;;36.70;1.00;;;;;;5072179;28;20214;-71
2022/07/03 06:20:14;;;;;;;14.53;13.93;;;36.60;1.00;;;;;;5071856;28;20644;-71
2022/07/03 06:22:40;;;;;;;14.47;13.97;;;37.00;1.00;;;;;;5072237;28;20174;-71
2022/07/03 06:25:07;;;;;;;14.30;13.80;;;37.20;1.00;;;;;;5072104;28;20186;-71
2022/07/03 06:27:33;;;;;;;14.30;13.80;;;37.70;1.00;;;;;;5072421;28;20412;-71
2022/07/03 06:29:59;;;;;;;14.77;14.27;;;38.20;1.00;;;;;;5071631;28;20799;-71
2022/07/03 06:32:24;;;;;;;14.90;14.40;;;38.10;1.00;;;;;;5072088;28;20416;-71
2022/07/03 06:34:50;;;;;;;15.03;14.43;;;38.20;1.00;;;;;;5070611;28;20540;-71
2022/07/03 06:37:15;;;;;;;15.20;14.60;;;37.90;1.00;;;;;;5071961;28;20202;-72
2022/07/03 06:39:41;;;;;;;15.13;14.43;;;38.40;1.00;;;;;;5071672;28;20615;-71
2022/07/03 06:42:07;;;;;;;15.20;14.60;;;38.70;1.00;;;;;;5072006;28;20182;-71
2022/07/03 06:44:32;;;;;;;15.37;14.80;;;38.80;1.00;;;;;;5071940;28;20200;-72
2022/07/03 06:46:58;;;;;;;15.50;14.90;;;39.40;1.00;;;;;;5071968;28;20182;-72
2022/07/03 06:49:24;;;;;;;15.30;14.70;;;39.40;1.00;;;;;;5071746;28;20603;-71
2022/07/03 06:51:50;;;;;;;15.90;15.20;;;39.30;1.00;;;;;;5070618;28;20178;-71
2022/07/03 06:54:15;;;;;;;15.07;14.57;;;38.70;1.00;;;;;;5071728;28;20436;-72
2022/07/03 06:56:42;;;;;;;15.13;14.43;;;38.20;1.00;;;;;;5070475;28;20568;-68
2022/07/03 06:59:08;;;;;;;15.33;14.73;;;37.90;1.00;;;;;;5070398;28;20197;-68
2022/07/03 07:01:34;;;;;;;15.23;14.53;;;37.80;1.00;;;;;;5071731;28;20416;-68
2022/07/03 07:04:00;;;;;;;15.50;14.90;;;37.30;1.00;;;;;;5072018;28;20907;-68
2022/07/03 07:06:26;;;;;;;15.10;14.50;;;36.30;1.00;;;;;;5071650;28;20496;-68
2022/07/03 07:08:51;;;;;;;15.40;14.80;;;34.60;1.00;;;;;;5071680;28;20264;-67
2022/07/03 07:11:17;;;;;;;14.97;14.27;;;33.70;1.00;;;;;;5071692;28;20236;-68
2022/07/03 07:13:42;;;;;;;15.07;14.47;;;33.80;1.00;;;;;;5072076;28;20182;-68
2022/07/03 07:16:08;;;;;;;14.40;13.90;;;34.30;1.00;;;;;;5071741;28;20209;-67
2022/07/03 07:18:34;;;;;;;14.33;13.73;;;32.80;1.00;;;;;;5076287;28;20186;-67
2022/07/03 07:21:00;;;;;;;14.30;13.80;;;33.10;1.00;;;;;;5076249;28;20178;-67
2022/07/03 07:23:25;;;;;;;14.30;13.80;;;33.20;1.00;;;;;;5076090;28;20173;-68
2022/07/03 07:25:51;;;;;;;13.90;13.40;;;33.90;1.00;;;;;;5075820;28;20193;-68
2022/07/03 07:28:17;;;;;;;14.50;13.57;;;33.70;1.00;;;;;;5075836;28;20190;-68
2022/07/03 07:30:42;;;;;;;14.13;13.63;;;34.40;1.00;;;;;;5075721;28;20306;-68
2022/07/03 07:33:08;;;;;;;14.40;13.90;;;35.50;1.00;;;;;;5075821;28;20366;-68
2022/07/03 07:35:34;;;;;;;14.60;14.00;;;36.00;1.00;;;;;;5075608;28;20198;-68
2022/07/03 07:38:00;;;;;;;14.57;13.87;;;36.30;1.00;;;;;;5069480;28;21077;-68
2022/07/03 07:40:26;;;;;;;14.20;13.60;;;36.70;1.00;;;;;;5056054;28;20182;-69
2022/07/03 07:42:51;;;;;;;14.00;13.50;;;37.20;1.00;;;;;;5055525;28;20547;-68
2022/07/03 07:45:17;;;;;;;14.00;13.40;;;37.30;1.00;;;;;;5055330;28;20198;-68
2022/07/03 07:47:42;;;;;;;14.17;13.47;;;37.40;1.00;;;;;;5056186;28;20568;-68
2022/07/03 07:50:08;;;;;;;14.30;13.80;;;37.80;1.00;;;;;;5055390;28;20649;-68
2022/07/03 07:52:34;;;;;;;13.20;12.70;;;37.90;1.00;;;;;;5055431;28;20175;-69
2022/07/03 07:54:59;;;;;;;14.30;13.80;;;37.90;1.00;;;;;;5053807;28;20198;-69
2022/07/03 07:57:25;;;;;;;13.37;12.87;;;37.80;1.00;;;;;;5069107;28;20560;-69
2022/07/03 07:59:51;;;;;;;13.87;13.37;;;37.80;1.00;;;;;;5074108;28;20258;-70
2022/07/03 08:07:45;;;;;;;14.20;13.50;;;37.30;1.00;;;;;;5074630;28;20982;-72
2022/07/03 08:10:10;;;;;;;14.07;13.53;;;36.60;1.00;;;;;;5091236;28;20427;-71
2022/07/03 08:12:36;;;;;;;13.87;13.37;;;36.70;1.00;;;;;;5090544;28;20181;-71
2022/07/03 08:15:01;;;;;;;13.50;13.00;;;37.10;1.00;;;;;;5090313;28;20201;-70
2022/07/03 08:17:27;;;;;;;14.10;13.40;;;37.00;1.00;;;;;;5091059;28;20205;-71
2022/07/03 08:19:53;;;;;;;13.83;13.27;;;36.60;1.00;;;;;;5090292;28;20268;-71
2022/07/03 08:22:18;;;;;;;13.43;12.93;;;36.50;1.00;;;;;;5090326;28;20662;-70
2022/07/03 08:24:43;;;;;;;13.70;13.20;;;36.30;1.00;;;;;;5090710;28;20619;-69
2022/07/03 08:27:09;;;;;;;13.67;13.17;;;36.40;1.00;;;;;;5089531;28;20189;-71
2022/07/03 08:29:34;;;;;;;13.67;13.17;;;36.30;1.00;;;;;;5089569;28;20196;-71
2022/07/03 08:32:00;;;;;;;14.00;13.50;;;36.10;1.00;;;;;;5090922;28;20184;-71
2022/07/03 08:34:26;;;;;;;13.93;13.43;;;35.80;1.00;;;;;;5088928;28;20216;-72
2022/07/03 08:36:52;;;;;;;14.00;13.50;;;35.40;1.00;;;;;;5089850;28;20200;-72
2022/07/03 08:39:17;;;;;;;14.50;14.00;;;35.20;1.00;;;;;;5090240;28;20237;-72
2022/07/03 08:41:44;;;;;;;13.77;13.27;;;34.90;1.00;;;;;;5089509;28;20423;-72
2022/07/03 08:44:12;;;;;;;13.70;13.20;;;34.70;1.00;;;;;;5088258;28;20659;-72
2022/07/03 08:46:39;;;;;;;14.00;13.50;;;34.60;1.00;;;;;;5089927;28;20411;-71
2022/07/03 08:49:06;;;;;;;14.23;13.63;;;34.00;1.00;;;;;;5088798;28;20423;-71
2022/07/03 08:51:32;;;;;;;14.03;13.53;;;33.60;1.00;;;;;;5089471;28;20419;-72
2022/07/03 08:54:01;;;;;;;14.03;13.43;;;33.30;1.00;;;;;;5091036;28;20422;-71
2022/07/03 08:56:27;;;;;;;13.97;13.47;;;32.90;1.00;;;;;;5089749;28;20201;-72
2022/07/03 08:58:53;;;;;;;13.93;13.43;;;32.30;1.00;;;;;;5089259;28;20422;-70
2022/07/03 09:01:20;;;;;;;14.63;13.97;;;31.90;1.00;;;;;;5090715;28;20446;-72
2022/07/03 09:03:45;;;;;;;13.90;13.40;;;31.10;1.00;;;;;;5090624;28;20439;-71
2022/07/03 09:06:14;;;;;;;14.10;13.60;;;;;;;;;;5089587;28;20483;-72
2022/07/03 09:08:41;;;;;;;13.47;12.97;;;30.20;1.00;;;;;;5057090;28;20320;-72
2022/07/03 09:11:07;;;;;;;12.53;12.07;;;29.40;1.00;;;;;;5064800;28;20440;-70
2022/07/03 09:13:32;;;;;;;13.20;12.70;;;29.00;1.00;;;;;;5063030;28;20502;-71
2022/07/03 09:15:58;;;;;;;13.87;13.17;;;28.60;1.00;;;;;;5055375;28;20222;-71
2022/07/03 09:18:41;;;;;;;13.20;12.70;;;28.30;1.00;;;;;;5047657;28;20552;-73
2022/07/03 09:21:08;;;;;;;13.10;12.60;;;28.00;1.00;;;;;;5054151;28;20175;-72
2022/07/03 09:23:42;;;;;;;13.10;12.60;;;27.60;1.00;;;;;;5049957;28;20417;-72
2022/07/03 09:26:14;;;;;;;13.13;12.70;;;27.20;1.00;;;;;;5068508;28;20440;-72
2022/07/03 09:28:53;;;;;;;13.13;12.53;;;27.00;1.00;;;;;;5049167;28;20827;-71
2022/07/03 09:31:22;;;;;;;13.53;12.63;;;27.00;1.00;;;;;;5048401;28;20525;-68
2022/07/03 09:33:57;;;;;;;13.40;12.90;;;26.90;1.00;;;;;;5049020;28;20939;-67
2022/07/03 09:36:44;;;;;;;14.20;13.50;;;26.80;1.00;;;;;;5056699;28;20462;-68
2022/07/03 09:39:19;;;;;;;13.17;12.57;;;26.60;1.00;;;;;;5083853;28;20506;-67
2022/07/03 09:41:59;;;;;;;13.20;12.60;;;26.40;1.00;;;;;;5089558;28;20622;-68
2022/07/03 09:44:40;;;;;;;13.20;12.70;;;26.40;1.00;;;;;;5088999;28;20497;-68
2022/07/03 09:47:17;;;;;;;13.10;12.60;;;26.40;1.00;;;;;;5089667;28;21301;-68
2022/07/03 09:49:54;;;;;;;12.73;12.23;;;26.40;1.00;;;;;;5089069;28;20411;-67
2022/07/03 09:52:40;;;;;;;12.53;12.03;;;26.40;1.00;;;;;;5089279;28;20411;-67
2022/07/03 09:55:08;;;;;;;12.40;11.97;;;26.30;1.00;;;;;;5089478;28;20442;-67
2022/07/03 09:57:35;;;;;;;12.10;11.70;;;26.30;1.00;;;;;;5089225;28;20760;-67
2022/07/03 10:00:15;;;;;;;12.27;11.87;;;26.30;1.00;;;;;;5077191;28;20421;-67
2022/07/03 10:03:01;;;;;;;12.80;12.30;;;26.30;1.00;;;;;;5047279;28;20951;-67
2022/07/03 10:05:28;;;;;;;12.27;11.87;;;26.10;1.00;;;;;;5049486;28;20472;-69
2022/07/03 10:07:56;;;;;;;13.13;12.60;;;26.10;1.00;;;;;;5048576;28;20445;-69
2022/07/03 10:10:24;;;;;;;11.63;11.23;;;26.20;1.00;;;;;;5084100;28;20435;-70
2022/07/03 10:12:51;;;;;;;12.30;11.77;;;26.30;1.00;;;;;;5086030;28;20841;-69
2022/07/03 10:15:18;;;;;;;11.90;11.50;;;26.20;1.00;;;;;;5070557;28;20440;-69
2022/07/03 10:17:47;;;;;;;11.90;11.50;;;26.30;1.00;;;;;;5072508;28;20504;-70
2022/07/03 10:20:14;;;;;;;11.33;10.93;;;26.40;1.00;;;;;;5072287;28;20416;-72
2022/07/03 10:22:43;;;;;;;11.27;10.87;;;26.30;1.00;;;;;;5072806;28;20411;-73
2022/07/03 10:25:09;;;;;;;11.60;11.20;;;26.10;1.00;;;;;;5072807;28;20436;-72
2022/07/03 10:27:36;;;;;;;11.60;11.20;;;26.10;1.00;;;;;;5072405;28;20450;-72
2022/07/03 10:30:02;;;;;;;13.90;12.43;;;26.10;1.00;;;;;;5072115;28;20440;-72
2022/07/03 10:32:29;;;;;;;13.00;12.50;;;26.10;1.00;;;;;;5069138;28;20867;-73
2022/07/03 10:34:55;;;;;;;12.80;12.30;;;26.20;1.00;;;;;;5062392;28;20775;-72
2022/07/03 10:37:21;;;;;;;11.93;11.53;;;26.30;1.00;;;;;;5067897;28;20457;-73
2022/07/03 10:46:11;;;;;;;12.53;12.13;;;26.40;1.00;;;;;;5052635;28;20803;-72
2022/07/03 10:48:55;;;;;;;12.60;11.77;;;26.40;1.00;;;;;;5052361;28;20409;-74
2022/07/03 10:51:21;;;;;;;12.60;12.10;;;26.30;1.00;;;;;;5052207;28;20409;-72
2022/07/03 10:53:47;;;;;;;12.10;11.70;;;26.20;1.00;;;;;;5052028;28;20761;-72
2022/07/03 10:56:14;;;;;;;12.50;12.00;;;26.20;1.00;;;;;;5052438;28;20464;-72
2022/07/03 10:58:56;;;;;;;12.30;11.90;;;26.20;1.00;;;;;;5052717;28;20777;-72
2022/07/03 11:01:29;;;;;;;12.83;12.33;;;26.20;1.00;;;;;;5068918;28;20751;-73
2022/07/03 11:03:59;;;;;;;12.10;11.70;;;26.30;1.00;;;;;;5061863;28;20833;-72
2022/07/03 11:06:46;;;;;;;12.37;11.83;;;26.40;1.00;;;;;;5052510;28;20427;-72
2022/07/03 11:09:13;;;;;;;12.57;12.17;;;26.30;1.00;;;;;;5048670;28;20765;-73
2022/07/03 11:11:54;;;;;;;13.13;12.53;;;26.20;1.00;;;;;;5053264;28;20445;-73
2022/07/03 11:14:22;;;;;;;12.97;12.47;;;26.30;1.00;;;;;;5058161;28;20876;-68
2022/07/03 11:16:48;;;;;;;12.50;12.00;;;26.20;1.00;;;;;;5065199;28;20818;-71
2022/07/03 11:19:25;;;;;;;13.10;12.50;;;26.20;1.00;;;;;;5072947;28;20412;-71
2022/07/03 11:22:00;;;;;;;12.23;11.83;;;26.40;1.00;;;;;;5052569;28;20213;-71
2022/07/03 11:24:43;;;;;;;12.13;11.73;;;26.50;1.00;;;;;;5052541;28;20815;-71
2022/07/03 11:27:28;;;;;;;12.03;11.63;;;26.50;1.00;;;;;;5055702;28;20456;-72
2022/07/03 11:29:56;;;;;;;12.57;12.07;;;26.60;1.00;;;;;;5052149;28;20425;-72
2022/07/03 11:32:44;;;;;;;12.50;12.10;;;26.60;1.00;;;;;;5051550;28;20444;-72
2022/07/03 11:35:51;;;;;;;12.70;12.20;;;26.70;1.00;;;;;;5055930;28;20472;-72
2022/07/03 11:38:23;;;;;;;12.57;12.07;;;26.70;1.00;;;;;;5071311;28;20804;-72
2022/07/03 11:40:51;;;;;;;11.77;11.37;;;26.70;1.00;;;;;;5072104;28;20393;-72
2022/07/03 11:43:17;;;;;;;11.83;11.43;;;26.60;1.00;;;;;;5071795;28;20435;-72
2022/07/03 11:45:43;;;;;;;11.67;11.27;;;26.60;1.20;;;;;;5072445;28;20444;-72
2022/07/03 11:48:17;;;;;;;13.57;12.87;;;26.50;1.00;;;;;;5071534;28;20253;-72
2022/07/03 11:50:45;;;;;;;12.63;12.23;;;26.60;1.00;;;;;;5071960;28;20408;-72
2022/07/03 11:53:26;;;;;;;12.10;11.70;;;26.60;1.00;;;;;;5072125;28;20410;-72
2022/07/03 11:55:57;;;;;;;13.07;12.57;;;26.60;1.00;;;;;;5064789;28;20439;-71
2022/07/03 11:58:24;;;;;;;13.07;12.57;;;26.60;1.00;;;;;;5082231;28;20832;-69
2022/07/03 12:00:51;;;;;;;12.57;12.10;;;26.60;1.00;;;;;;5077345;28;21002;-73
2022/07/03 12:03:22;;;;;;;11.97;11.57;;;26.70;1.00;;;;;;5070326;28;20501;-72
2022/07/03 12:05:56;;;;;;;13.00;12.60;;;26.60;1.00;;;;;;5070436;28;20552;-72
2022/07/03 12:08:30;;;;;;;12.90;12.40;;;26.60;1.00;;;;;;5070803;28;20423;-71
2022/07/03 12:11:01;;;;;;;12.30;11.90;;;26.60;1.00;;;;;;5070788;28;20420;-72
2022/07/03 12:13:30;;;;;;;12.70;12.30;;;26.80;1.00;;;;;;5071137;28;20423;-71
2022/07/03 12:16:02;;;;;;;12.93;12.53;;;26.80;1.00;;;;;;5070179;28;20428;-70
2022/07/03 12:18:40;;;;;;;13.10;12.60;;;26.90;1.00;;;;;;5069505;28;20927;-72
2022/07/03 12:21:05;;;;;;;12.53;12.03;;;26.90;1.00;;;;;;5071575;28;20931;-75
2022/07/03 12:23:53;;;;;;;13.13;12.63;;;27.00;1.00;;;;;;5069518;28;20435;-72
2022/07/03 12:26:33;;;;;;;12.60;12.20;;;27.10;1.00;;;;;;5070883;28;20208;-72
2022/07/03 12:29:00;;;;;;;12.20;11.80;;;27.00;1.00;;;;;;5069885;28;20508;-72
2022/07/03 12:31:26;;;;;;;13.10;12.40;;;27.00;1.00;;;;;;5058252;28;20439;-68
2022/07/03 12:33:52;;;;;;;13.10;12.60;;;27.10;1.00;;;;;;5065727;28;20439;-68
2022/07/03 12:36:18;;;;;;;13.07;12.40;;;27.10;1.00;;;;;;5082775;28;20516;-68
2022/07/03 12:38:48;;;;;;;13.70;12.90;;;27.00;1.00;;;;;;5078580;28;20451;-68
2022/07/03 12:41:15;;;;;;;13.77;13.27;;;27.10;1.00;;;;;;5090397;28;20419;-68
2022/07/03 12:43:42;;;;;;;13.20;12.70;;;27.10;1.00;;;;;;5090421;28;20843;-68
2022/07/03 12:46:20;;;;;;;13.77;13.17;;;27.20;1.00;;;;;;5087047;28;20483;-68
2022/07/03 12:48:56;;;;;;;13.40;12.90;;;27.30;1.00;;;;;;5066171;28;20514;-69
2022/07/03 12:51:42;;;;;;;15.97;15.17;;;27.30;1.00;;;;;;5082494;28;20697;-67
2022/07/03 12:54:12;;;;;;;13.10;12.50;;;27.50;1.00;;;;;;5069511;28;20424;-67
2022/07/03 12:56:38;;;;;;;12.77;12.20;;;27.50;1.00;;;;;;5064641;28;20457;-68
2022/07/03 12:59:16;;;;;;;12.30;11.90;;;27.70;1.00;;;;;;5050354;28;20459;-67
2022/07/03 13:01:42;;;;;;;12.30;11.90;;;27.80;1.00;;;;;;5050435;28;20423;-67
2022/07/03 13:04:09;;;;;;;12.77;12.27;;;27.90;1.00;;;;;;5049004;28;20968;-68
2022/07/03 13:06:35;;;;;;;12.77;12.27;;;27.90;1.00;;;;;;5059821;28;20439;-67
2022/07/03 13:09:03;;;;;;;13.33;12.73;;;27.80;1.00;;;;;;5071536;28;20420;-72
2022/07/03 13:11:34;;;;;;;11.80;11.30;;;27.90;1.00;;;;;;5069084;28;20950;-71
2022/07/03 13:14:12;;;;;;;11.97;11.57;;;27.80;1.00;;;;;;5068465;28;20451;-71